createdAt,value
2023-03-06T00:01:04.426Z,5.86
2023-03-06T00:03:33.723Z,5.88
2023-03-06T00:06:02.145Z,5.86
2023-03-06T00:08:30.628Z,5.86
2023-03-06T00:10:58.427Z,5.88
2023-03-06T00:13:30.034Z,5.84
2023-03-06T00:16:01.145Z,5.81
2023-03-06T00:18:28.942Z,5.73
2023-03-06T00:20:56.537Z,5.69
2023-03-06T00:23:24.370Z,5.69
2023-03-06T00:25:51.885Z,5.70
2023-03-06T00:28:19.510Z,5.70
2023-03-06T00:30:48.570Z,5.70
2023-03-06T00:33:16.313Z,5.71
2023-03-06T00:35:43.936Z,5.71
2023-03-06T00:38:13.320Z,5.74
2023-03-06T00:40:40.831Z,5.77
2023-03-06T00:43:08.393Z,5.76
2023-03-06T00:45:36.485Z,5.74
2023-03-06T00:48:04.483Z,5.74
2023-03-06T00:50:32.089Z,5.77
2023-03-06T00:53:00.573Z,5.80
2023-03-06T00:55:29.569Z,5.80
2023-03-06T00:57:57.213Z,5.78
2023-03-06T01:00:25.117Z,5.82
2023-03-06T01:02:53.771Z,5.89
2023-03-06T01:05:23.064Z,5.94
2023-03-06T01:07:50.720Z,6.00
2023-03-06T01:10:18.512Z,6.04
2023-03-06T01:12:48.781Z,6.02
2023-03-06T01:15:16.437Z,6.02
2023-03-06T01:17:44.104Z,6.00
2023-03-06T01:20:15.744Z,5.95
2023-03-06T01:22:43.362Z,5.93
2023-03-06T01:25:11.788Z,5.93
2023-03-06T01:27:39.788Z,5.95
2023-03-06T01:30:08.498Z,5.97
2023-03-06T01:32:36.074Z,5.98
2023-03-06T01:35:04.046Z,5.95
2023-03-06T01:37:31.656Z,5.90
2023-03-06T01:39:59.184Z,5.90
2023-03-06T01:42:26.862Z,5.90
2023-03-06T01:45:01.802Z,5.88
2023-03-06T01:47:29.479Z,5.90
2023-03-06T01:50:00.736Z,5.90
2023-03-06T01:52:36.281Z,5.86
2023-03-06T01:55:10.016Z,5.81
2023-03-06T01:58:00.062Z,5.80
2023-03-06T02:00:29.247Z,5.78
2023-03-06T02:03:18.529Z,5.81
2023-03-06T02:05:46.682Z,5.85
2023-03-06T02:08:18.550Z,5.92
2023-03-06T02:11:06.019Z,5.98
2023-03-06T02:13:35.096Z,6.04
2023-03-06T02:16:02.917Z,6.08
2023-03-06T02:18:30.644Z,6.16
2023-03-06T02:21:02.424Z,6.16
2023-03-06T02:23:56.232Z,6.17
2023-03-06T02:26:26.184Z,6.20
2023-03-06T02:28:57.441Z,6.20
2023-03-06T02:31:31.205Z,6.20
2023-03-06T02:34:08.664Z,6.17
2023-03-06T02:36:42.002Z,6.14
2023-03-06T02:39:10.301Z,6.14
2023-03-06T02:41:38.868Z,6.10
2023-03-06T02:44:07.759Z,6.10
2023-03-06T02:46:36.171Z,6.08
2023-03-06T02:49:03.888Z,6.06
2023-03-06T02:51:32.098Z,6.05
2023-03-06T02:53:59.755Z,6.08
2023-03-06T02:56:27.397Z,6.06
2023-03-06T02:58:55.093Z,6.06
2023-03-06T03:01:23.174Z,6.06
2023-03-06T03:03:50.923Z,6.07
2023-03-06T03:06:18.490Z,6.08
2023-03-06T03:08:46.056Z,6.06
2023-03-06T03:11:14.879Z,6.02
2023-03-06T03:13:45.289Z,5.99
2023-03-06T03:16:18.252Z,5.94
2023-03-06T03:18:48.136Z,5.90
2023-03-06T03:21:18.764Z,5.84
2023-03-06T03:23:48.048Z,5.81
2023-03-06T03:26:21.200Z,5.80
2023-03-06T03:29:06.179Z,5.76
2023-03-06T03:31:34.065Z,5.74
2023-03-06T03:34:02.855Z,5.71
2023-03-06T03:36:33.718Z,5.70
2023-03-06T03:39:01.366Z,5.69
2023-03-06T03:41:29.124Z,5.68
2023-03-06T03:43:56.935Z,5.65
2023-03-06T03:46:27.659Z,5.64
2023-03-06T03:48:57.278Z,5.61
2023-03-06T03:51:24.906Z,5.59
2023-03-06T03:53:56.849Z,5.57
2023-03-06T03:56:27.241Z,5.57
2023-03-06T03:59:03.529Z,5.58
2023-03-06T04:01:39.553Z,5.56
2023-03-06T04:04:07.901Z,5.57
2023-03-06T04:06:35.720Z,5.56
2023-03-06T04:09:05.743Z,5.55
2023-03-06T04:11:33.946Z,5.54
2023-03-06T04:14:02.063Z,5.52
2023-03-06T04:16:30.425Z,5.52
2023-03-06T04:18:58.634Z,5.52
2023-03-06T04:21:27.044Z,5.50
2023-03-06T04:23:55.005Z,5.48
2023-03-06T04:26:22.643Z,5.46
2023-03-06T04:28:50.233Z,5.46
2023-03-06T04:31:17.973Z,5.45
2023-03-06T04:33:45.582Z,5.43
2023-03-06T04:36:29.770Z,5.43
2023-03-06T04:39:01.569Z,5.41
2023-03-06T04:41:29.351Z,5.38
2023-03-06T04:43:56.966Z,5.38
2023-03-06T04:46:24.710Z,5.39
2023-03-06T04:48:52.238Z,5.39
2023-03-06T04:51:19.907Z,5.37
2023-03-06T04:53:47.403Z,5.34
2023-03-06T04:56:15.112Z,5.29
2023-03-06T04:58:43.882Z,5.25
2023-03-06T05:01:12.320Z,5.23
2023-03-06T05:03:39.880Z,5.21
2023-03-06T05:06:07.704Z,5.19
2023-03-06T05:08:35.361Z,5.19
2023-03-06T05:11:03.915Z,5.16
2023-03-06T05:13:31.499Z,5.17
2023-03-06T05:16:06.723Z,5.16
2023-03-06T05:18:34.981Z,5.18
2023-03-06T05:21:03.431Z,5.19
2023-03-06T05:23:33.826Z,5.17
2023-03-06T05:26:01.373Z,5.16
2023-03-06T05:28:28.846Z,5.14
2023-03-06T05:30:56.583Z,5.11
2023-03-06T05:33:24.081Z,5.09
2023-03-06T05:35:51.936Z,5.04
2023-03-06T05:38:19.577Z,5.02
2023-03-06T05:40:47.234Z,4.99
2023-03-06T05:43:14.904Z,4.97
2023-03-06T05:45:42.526Z,4.95
2023-03-06T05:48:12.567Z,4.95
2023-03-06T05:50:40.429Z,4.93
2023-03-06T05:53:07.991Z,4.90
2023-03-06T05:55:35.647Z,4.89
2023-03-06T05:58:03.225Z,4.90
2023-03-06T06:00:30.815Z,4.87
2023-03-06T06:03:01.838Z,4.85
2023-03-06T06:05:29.429Z,4.80
2023-03-06T06:07:56.979Z,4.80
2023-03-06T06:10:24.530Z,4.77
2023-03-06T06:12:52.054Z,4.74
2023-03-06T06:15:19.646Z,4.71
2023-03-06T06:17:47.164Z,4.69
2023-03-06T06:20:17.303Z,4.68
2023-03-06T06:22:44.995Z,4.66
2023-03-06T06:25:13.139Z,4.67
2023-03-06T06:27:40.732Z,4.67
2023-03-06T06:30:11.867Z,4.68
2023-03-06T06:32:39.607Z,4.66
2023-03-06T06:35:07.596Z,4.65
2023-03-06T06:37:35.668Z,4.64
2023-03-06T06:40:04.548Z,4.66
2023-03-06T06:42:38.901Z,4.67
2023-03-06T06:45:09.004Z,4.67
2023-03-06T06:47:41.439Z,4.66
2023-03-06T06:50:13.235Z,4.67
2023-03-06T06:52:41.194Z,4.72
2023-03-06T06:55:09.621Z,4.73
2023-03-06T06:57:37.181Z,4.75
2023-03-06T07:00:05.970Z,4.77
2023-03-06T07:02:33.861Z,4.77
2023-03-06T07:05:05.060Z,4.83
2023-03-06T07:07:38.133Z,4.89
2023-03-06T07:10:11.564Z,4.92
2023-03-06T07:12:39.095Z,4.97
2023-03-06T07:15:08.173Z,5.02
2023-03-06T07:17:35.818Z,5.05
2023-03-06T07:20:04.487Z,5.06
2023-03-06T07:22:44.744Z,5.09
2023-03-06T07:25:18.137Z,5.12
2023-03-06T07:27:52.821Z,5.14
2023-03-06T07:30:24.063Z,5.18
2023-03-06T07:32:59.043Z,5.19
2023-03-06T07:35:27.029Z,5.21
2023-03-06T07:37:54.637Z,5.23
2023-03-06T07:40:23.870Z,5.27
2023-03-06T07:43:09.096Z,5.30
2023-03-06T07:45:46.904Z,5.35
2023-03-06T07:48:15.086Z,5.38
2023-03-06T07:50:43.478Z,5.39
2023-03-06T07:53:11.652Z,5.43
2023-03-06T07:55:41.584Z,5.48
2023-03-06T07:58:09.110Z,5.53
2023-03-06T08:00:36.838Z,5.56
2023-03-06T08:03:04.485Z,5.60
2023-03-06T08:05:32.153Z,5.64
2023-03-06T08:07:59.760Z,5.70
2023-03-06T08:10:27.412Z,5.75
2023-03-06T08:12:55.114Z,5.82
2023-03-06T08:15:22.753Z,5.89
2023-03-06T08:17:51.310Z,5.96
2023-03-06T08:20:18.951Z,6.00
2023-03-06T08:22:46.553Z,6.05
2023-03-06T08:25:14.093Z,6.09
2023-03-06T08:27:41.714Z,6.16
2023-03-06T08:30:09.948Z,6.24
2023-03-06T08:32:38.942Z,6.32
2023-03-06T08:35:07.114Z,6.41
2023-03-06T08:37:34.798Z,6.47
2023-03-06T08:40:04.770Z,6.52
2023-03-06T08:42:32.750Z,6.58
2023-03-06T08:45:00.410Z,6.60
2023-03-06T08:47:28.015Z,6.63
2023-03-06T08:49:55.939Z,6.66
2023-03-06T08:52:23.501Z,6.70
2023-03-06T08:54:51.087Z,6.83
2023-03-06T08:57:18.770Z,6.88
2023-03-06T08:59:46.282Z,6.97
2023-03-06T09:02:15.368Z,7.09
2023-03-06T09:04:42.950Z,7.20
2023-03-06T09:07:10.612Z,7.31
2023-03-06T09:09:38.306Z,7.44
2023-03-06T09:12:05.987Z,7.57
2023-03-06T09:14:33.484Z,7.66
2023-03-06T09:17:01.059Z,7.73
2023-03-06T09:19:28.664Z,7.68
2023-03-06T09:21:57.913Z,7.74
2023-03-06T09:24:25.625Z,7.82
2023-03-06T09:26:53.319Z,7.91
2023-03-06T09:29:21.359Z,8.08
2023-03-06T09:31:49.462Z,8.23
2023-03-06T09:34:17.391Z,8.42
2023-03-06T09:36:56.891Z,8.53
2023-03-06T09:39:26.644Z,8.62
2023-03-06T09:41:55.462Z,8.68
2023-03-06T09:44:29.475Z,8.74
2023-03-06T09:47:34.632Z,8.78
2023-03-06T09:50:17.592Z,8.81
2023-03-06T09:53:15.425Z,8.78
2023-03-06T09:55:50.293Z,8.65
2023-03-06T09:58:22.285Z,8.69
2023-03-06T10:01:30.448Z,8.81
2023-03-06T10:04:06.863Z,8.97
2023-03-06T10:06:41.539Z,9.14
2023-03-06T10:09:18.941Z,9.49
2023-03-06T10:12:01.011Z,9.75
2023-03-06T10:14:32.009Z,9.88
2023-03-06T10:17:00.784Z,9.87
2023-03-06T10:19:37.681Z,9.83
2023-03-06T10:22:29.203Z,9.79
2023-03-06T10:25:08.661Z,9.94
2023-03-06T10:27:54.916Z,10.06
2023-03-06T10:30:46.490Z,10.39
2023-03-06T10:33:49.594Z,10.75
2023-03-06T10:36:18.807Z,11.11
2023-03-06T10:38:48.744Z,11.82
2023-03-06T10:41:22.891Z,12.48
2023-03-06T10:44:00.237Z,13.27
2023-03-06T10:46:31.450Z,13.86
2023-03-06T10:49:10.176Z,14.14
2023-03-06T10:51:38.248Z,14.37
2023-03-06T10:54:14.874Z,14.27
2023-03-06T10:56:44.552Z,14.04
2023-03-06T10:59:18.346Z,14.16
2023-03-06T11:01:51.728Z,14.03
2023-03-06T11:04:34.643Z,14.05
2023-03-06T11:07:14.659Z,14.19
2023-03-06T11:09:47.863Z,13.91
2023-03-06T11:12:33.950Z,13.92
2023-03-06T11:15:10.234Z,14.51
2023-03-06T11:17:47.818Z,15.19
2023-03-06T11:20:15.352Z,15.81
2023-03-06T11:22:49.290Z,16.74
2023-03-06T11:25:19.341Z,17.87
2023-03-06T11:27:56.128Z,18.74
2023-03-06T11:30:35.117Z,18.39
2023-03-06T11:33:14.295Z,18.43
2023-03-06T11:35:58.238Z,17.84
2023-03-06T11:38:47.447Z,17.56
2023-03-06T11:41:44.254Z,17.46
2023-03-06T11:44:34.713Z,17.33
2023-03-06T11:47:15.310Z,16.36
2023-03-06T11:49:52.644Z,15.50
2023-03-06T11:52:31.135Z,15.38
2023-03-06T11:54:59.012Z,15.23
2023-03-06T11:57:58.718Z,15.20
2023-03-06T12:01:06.366Z,15.11
2023-03-06T12:03:58.547Z,14.96
2023-03-06T12:06:53.834Z,15.16
2023-03-06T12:09:27.114Z,15.09
2023-03-06T12:12:19.464Z,15.09
2023-03-06T12:15:22.855Z,15.06
2023-03-06T12:18:24.329Z,15.24
2023-03-06T12:21:28.910Z,15.91
2023-03-06T12:24:05.318Z,16.19
2023-03-06T12:26:56.908Z,16.49
2023-03-06T12:30:01.635Z,16.59
2023-03-06T12:32:48.147Z,16.82
2023-03-06T12:35:34.416Z,17.05
2023-03-06T12:38:39.469Z,17.44
2023-03-06T12:41:07.048Z,17.51
2023-03-06T12:43:34.521Z,18.14
2023-03-06T12:46:17.711Z,18.72
2023-03-06T12:48:52.940Z,19.14
2023-03-06T12:51:21.981Z,19.44
2023-03-06T12:53:51.170Z,19.54
2023-03-06T12:56:19.697Z,19.58
2023-03-06T12:58:51.639Z,19.81
2023-03-06T13:01:32.832Z,19.92
2023-03-06T13:04:31.441Z,20.00
2023-03-06T13:07:17.676Z,19.99
2023-03-06T13:10:07.095Z,20.17
2023-03-06T13:12:40.716Z,20.22
2023-03-06T13:15:29.760Z,20.35
2023-03-06T13:17:57.636Z,20.20
2023-03-06T13:20:40.905Z,19.89
2023-03-06T13:23:27.263Z,18.35
2023-03-06T13:25:56.572Z,17.91
2023-03-06T13:28:50.944Z,17.17
2023-03-06T13:31:49.585Z,16.87
2023-03-06T13:34:41.045Z,17.14
2023-03-06T13:37:17.701Z,17.33
2023-03-06T13:40:00.129Z,16.43
2023-03-06T13:42:31.985Z,15.42
2023-03-06T13:45:05.685Z,14.53
2023-03-06T13:48:02.492Z,13.85
2023-03-06T13:50:36.937Z,13.10
2023-03-06T13:53:30.057Z,12.40
2023-03-06T13:56:06.717Z,11.83
2023-03-06T13:58:59.946Z,11.42
2023-03-06T14:01:36.753Z,11.35
2023-03-06T14:04:27.391Z,12.05
2023-03-06T14:07:05.497Z,12.81
2023-03-06T14:09:45.699Z,13.02
2023-03-06T14:12:24.846Z,12.73
2023-03-06T14:14:59.023Z,12.35
2023-03-06T14:17:38.588Z,12.11
2023-03-06T14:20:18.351Z,11.98
2023-03-06T14:22:46.075Z,11.86
2023-03-06T14:25:27.187Z,11.71
2023-03-06T14:27:56.450Z,11.61
2023-03-06T14:30:28.042Z,11.65
2023-03-06T14:32:56.291Z,11.80
2023-03-06T14:35:28.692Z,11.70
2023-03-06T14:38:02.829Z,11.60
2023-03-06T14:40:36.866Z,11.38
2023-03-06T14:43:12.980Z,11.17
2023-03-06T14:45:58.897Z,10.97
2023-03-06T14:48:38.720Z,10.80
2023-03-06T14:51:14.725Z,10.79
2023-03-06T14:53:44.932Z,10.85
2023-03-06T14:56:17.432Z,10.91
2023-03-06T14:58:51.047Z,10.94
2023-03-06T15:01:28.000Z,10.70
2023-03-06T15:03:59.666Z,10.53
2023-03-06T15:06:36.421Z,10.50
2023-03-06T15:09:20.516Z,10.51
2023-03-06T15:12:00.192Z,10.48
2023-03-06T15:14:42.363Z,10.43
2023-03-06T15:17:19.075Z,10.40
2023-03-06T15:19:48.735Z,10.35
2023-03-06T15:22:28.017Z,10.29
2023-03-06T15:25:16.060Z,10.11
2023-03-06T15:27:49.889Z,9.83
2023-03-06T15:30:28.779Z,9.57
2023-03-06T15:33:25.708Z,9.40
2023-03-06T15:36:04.785Z,9.26
2023-03-06T15:38:36.594Z,9.16
2023-03-06T15:41:07.085Z,9.07
2023-03-06T15:43:38.744Z,9.00
2023-03-06T15:46:07.863Z,8.99
2023-03-06T15:48:35.580Z,8.97
2023-03-06T15:51:03.821Z,8.95
2023-03-06T15:53:31.455Z,8.96
2023-03-06T15:55:59.656Z,8.91
2023-03-06T15:58:31.259Z,8.80
2023-03-06T16:00:58.903Z,8.65
2023-03-06T16:03:26.594Z,8.52
2023-03-06T16:05:54.186Z,8.35
2023-03-06T16:08:21.778Z,8.20
2023-03-06T16:10:51.951Z,8.06
2023-03-06T16:13:27.778Z,7.95
2023-03-06T16:15:55.936Z,7.84
2023-03-06T16:18:23.540Z,7.67
2023-03-06T16:20:51.384Z,7.56
2023-03-06T16:23:19.092Z,7.42
2023-03-06T16:25:49.347Z,7.27
2023-03-06T16:28:17.212Z,7.16
2023-03-06T16:30:45.636Z,7.07
2023-03-06T16:33:14.291Z,6.99
2023-03-06T16:35:44.573Z,6.89
2023-03-06T16:38:12.338Z,6.78
2023-03-06T16:40:41.590Z,6.69
2023-03-06T16:43:10.766Z,6.63
2023-03-06T16:45:40.612Z,6.55
2023-03-06T16:48:14.805Z,6.50
2023-03-06T16:50:42.512Z,6.47
2023-03-06T16:53:10.020Z,6.42
2023-03-06T16:55:37.817Z,6.40
2023-03-06T16:58:06.419Z,6.37
2023-03-06T17:00:34.106Z,6.35
2023-03-06T17:03:03.050Z,6.30
2023-03-06T17:05:33.735Z,6.26
2023-03-06T17:08:01.857Z,6.26
2023-03-06T17:10:29.841Z,6.24
2023-03-06T17:12:57.615Z,6.21
2023-03-06T17:15:26.004Z,6.18
2023-03-06T17:17:53.651Z,6.16
2023-03-06T17:20:21.388Z,6.05
2023-03-06T17:22:49.009Z,5.99
2023-03-06T17:25:16.645Z,5.91
2023-03-06T17:27:44.353Z,5.82
2023-03-06T17:30:12.624Z,5.76
2023-03-06T17:32:41.152Z,5.74
2023-03-06T17:35:09.720Z,5.70
2023-03-06T17:37:37.664Z,5.68
2023-03-06T17:40:08.733Z,5.61
2023-03-06T17:42:36.484Z,5.58
2023-03-06T17:45:04.988Z,5.52
2023-03-06T17:47:32.713Z,5.46
2023-03-06T17:50:00.261Z,5.43
2023-03-06T17:52:27.903Z,5.38
2023-03-06T17:54:55.529Z,5.36
2023-03-06T17:57:23.371Z,5.32
2023-03-06T17:59:53.090Z,5.29
2023-03-06T18:02:20.815Z,5.27
2023-03-06T18:04:48.410Z,5.26
2023-03-06T18:07:16.293Z,5.22
2023-03-06T18:09:44.241Z,5.19
2023-03-06T18:12:11.961Z,5.15
2023-03-06T18:14:39.520Z,5.12
2023-03-06T18:17:07.097Z,5.09
2023-03-06T18:19:34.645Z,5.05
2023-03-06T18:22:02.317Z,5.05
2023-03-06T18:24:29.923Z,5.04
2023-03-06T18:26:57.493Z,5.07
2023-03-06T18:29:25.076Z,5.06
2023-03-06T18:31:53.340Z,5.08
2023-03-06T18:34:21.017Z,5.09
2023-03-06T18:36:51.593Z,5.12
2023-03-06T18:39:21.514Z,5.14
2023-03-06T18:41:49.285Z,5.18
2023-03-06T18:44:17.604Z,5.21
2023-03-06T18:46:45.475Z,5.25
2023-03-06T18:49:14.211Z,5.27
2023-03-06T18:51:42.497Z,5.28
2023-03-06T18:54:11.513Z,5.26
2023-03-06T18:56:44.064Z,5.28
2023-03-06T18:59:18.552Z,5.30
2023-03-06T19:01:47.311Z,5.30
2023-03-06T19:04:15.048Z,5.32
2023-03-06T19:06:42.910Z,5.34
2023-03-06T19:09:11.430Z,5.35
2023-03-06T19:11:39.019Z,5.35
2023-03-06T19:14:06.858Z,5.36
2023-03-06T19:16:35.145Z,5.32
2023-03-06T19:19:02.756Z,5.30
2023-03-06T19:21:30.492Z,5.30
2023-03-06T19:23:58.464Z,5.31
2023-03-06T19:26:28.054Z,5.31
2023-03-06T19:28:55.906Z,5.28
2023-03-06T19:31:26.918Z,5.28
2023-03-06T19:33:56.872Z,5.26
2023-03-06T19:36:27.859Z,5.26
2023-03-06T19:39:00.724Z,5.24
2023-03-06T19:41:31.613Z,5.18
2023-03-06T19:44:02.475Z,5.13
2023-03-06T19:46:31.926Z,5.10
2023-03-06T19:49:02.047Z,5.05
2023-03-06T19:51:30.070Z,5.01
2023-03-06T19:53:58.382Z,4.95
2023-03-06T19:56:29.132Z,4.93
2023-03-06T19:58:57.108Z,4.91
2023-03-06T20:01:26.669Z,4.89
2023-03-06T20:03:59.087Z,4.84
2023-03-06T20:06:37.690Z,4.77
2023-03-06T20:09:08.778Z,4.73
2023-03-06T20:11:36.448Z,4.72
2023-03-06T20:14:06.071Z,4.67
2023-03-06T20:16:34.342Z,4.65
2023-03-06T20:19:02.863Z,4.63
2023-03-06T20:21:35.452Z,4.62
2023-03-06T20:24:04.071Z,4.62
2023-03-06T20:26:34.087Z,4.61
2023-03-06T20:29:01.777Z,4.60
2023-03-06T20:31:30.758Z,4.57
2023-03-06T20:33:59.513Z,4.53
2023-03-06T20:36:33.092Z,4.50
2023-03-06T20:39:02.589Z,4.43
2023-03-06T20:41:31.754Z,4.38
2023-03-06T20:44:00.891Z,4.38
2023-03-06T20:46:29.096Z,4.37
2023-03-06T20:48:58.211Z,4.36
2023-03-06T20:51:31.795Z,4.31
2023-03-06T20:54:01.218Z,4.28
2023-03-06T20:56:31.473Z,4.25
2023-03-06T20:58:59.365Z,4.22
2023-03-06T21:01:33.264Z,4.21
2023-03-06T21:04:01.824Z,4.21
2023-03-06T21:06:29.526Z,4.20
2023-03-06T21:08:58.465Z,4.21
2023-03-06T21:11:26.591Z,4.22
2023-03-06T21:13:55.014Z,4.22
2023-03-06T21:16:25.065Z,4.22
2023-03-06T21:18:55.497Z,4.22
2023-03-06T21:21:26.708Z,4.24
2023-03-06T21:23:54.518Z,4.24
2023-03-06T21:26:24.441Z,4.27
2023-03-06T21:28:52.222Z,4.26
2023-03-06T21:31:21.873Z,4.25
2023-03-06T21:33:50.387Z,4.26
2023-03-06T21:36:21.446Z,4.24
2023-03-06T21:38:50.516Z,4.21
2023-03-06T21:41:28.981Z,4.15
2023-03-06T21:43:58.659Z,4.15
2023-03-06T21:46:27.528Z,4.14
2023-03-06T21:48:56.548Z,4.09
2023-03-06T21:51:26.006Z,4.06
2023-03-06T21:53:54.595Z,4.05
2023-03-06T21:56:25.505Z,3.99
2023-03-06T21:58:53.290Z,3.91
2023-03-06T22:01:23.757Z,3.86
2023-03-06T22:03:52.001Z,3.80
2023-03-06T22:06:22.646Z,3.74
2023-03-06T22:08:50.649Z,3.69
2023-03-06T22:11:20.710Z,3.66
2023-03-06T22:13:49.044Z,3.59
2023-03-06T22:16:17.496Z,3.53
2023-03-06T22:18:47.417Z,3.48
2023-03-06T22:21:17.660Z,3.42
2023-03-06T22:23:50.422Z,3.37
2023-03-06T22:26:18.175Z,3.27
2023-03-06T22:28:46.048Z,3.21
2023-03-06T22:31:15.173Z,3.16
2023-03-06T22:33:43.257Z,3.12
2023-03-06T22:36:15.843Z,3.09
2023-03-06T22:38:45.007Z,3.03
2023-03-06T22:41:14.617Z,3.00
2023-03-06T22:43:42.996Z,2.97
2023-03-06T22:46:13.869Z,2.93
2023-03-06T22:48:41.682Z,2.87
2023-03-06T22:51:20.518Z,2.85
2023-03-06T22:53:48.946Z,2.76
2023-03-06T22:56:19.004Z,2.71
2023-03-06T22:58:47.363Z,2.67
2023-03-06T23:01:20.684Z,2.67
2023-03-06T23:03:50.717Z,2.70
2023-03-06T23:06:28.201Z,2.71
2023-03-06T23:09:21.834Z,2.72
2023-03-06T23:12:09.107Z,2.74
2023-03-06T23:14:55.218Z,2.76
2023-03-06T23:17:41.546Z,2.77
2023-03-06T23:20:27.964Z,2.77
2023-03-06T23:23:13.704Z,2.78
2023-03-06T23:25:41.709Z,2.77
2023-03-06T23:28:09.504Z,2.80
2023-03-06T23:30:39.205Z,2.85
2023-03-06T23:33:07.175Z,2.90
2023-03-06T23:35:39.180Z,2.94
2023-03-06T23:38:07.350Z,2.96
2023-03-06T23:40:36.234Z,2.97
2023-03-06T23:43:04.674Z,3.00
2023-03-06T23:45:32.561Z,3.00
2023-03-06T23:48:00.130Z,3.00
2023-03-06T23:50:27.676Z,2.99
2023-03-06T23:52:55.733Z,3.00
2023-03-06T23:55:23.250Z,3.02
2023-03-06T23:57:50.878Z,3.04
